sensor_id;sensor_type;location;lat;lon;timestamp;temperature;humidity
38436;DHT22;24220;48.168;14.024;2023-01-29T00:00:04;7.60;68.60
38436;DHT22;24220;48.168;14.024;2023-01-29T00:02:36;7.60;68.60
38436;DHT22;24220;48.168;14.024;2023-01-29T00:05:04;7.60;68.50
38436;DHT22;24220;48.168;14.024;2023-01-29T00:07:55;7.60;68.50
38436;DHT22;24220;48.168;14.024;2023-01-29T00:10:25;7.60;68.50
38436;DHT22;24220;48.168;14.024;2023-01-29T00:12:53;7.60;68.50
38436;DHT22;24220;48.168;14.024;2023-01-29T00:15:21;7.50;68.40
38436;DHT22;24220;48.168;14.024;2023-01-29T00:17:48;7.50;69.10
38436;DHT22;24220;48.168;14.024;2023-01-29T00:20:18;7.50;68.50
38436;DHT22;24220;48.168;14.024;2023-01-29T00:22:45;7.60;68.60
38436;DHT22;24220;48.168;14.024;2023-01-29T00:25:13;7.50;68.50
38436;DHT22;24220;48.168;14.024;2023-01-29T00:27:45;7.50;68.50
38436;DHT22;24220;48.168;14.024;2023-01-29T00:30:12;7.50;68.60
38436;DHT22;24220;48.168;14.024;2023-01-29T00:32:41;7.50;68.60
38436;DHT22;24220;48.168;14.024;2023-01-29T00:35:13;7.50;68.60
38436;DHT22;24220;48.168;14.024;2023-01-29T00:37:43;7.50;68.90
38436;DHT22;24220;48.168;14.024;2023-01-29T00:40:10;7.50;68.60
38436;DHT22;24220;48.168;14.024;2023-01-29T00:42:42;7.50;68.60
38436;DHT22;24220;48.168;14.024;2023-01-29T00:45:28;7.50;68.60
38436;DHT22;24220;48.168;14.024;2023-01-29T00:47:56;7.50;68.60
38436;DHT22;24220;48.168;14.024;2023-01-29T00:50:23;7.50;68.60
38436;DHT22;24220;48.168;14.024;2023-01-29T00:52:50;7.50;68.50
38436;DHT22;24220;48.168;14.024;2023-01-29T00:55:19;7.60;68.50
38436;DHT22;24220;48.168;14.024;2023-01-29T00:57:49;7.50;68.50
38436;DHT22;24220;48.168;14.024;2023-01-29T01:00:19;7.60;68.50
38436;DHT22;24220;48.168;14.024;2023-01-29T01:02:46;7.60;68.60
38436;DHT22;24220;48.168;14.024;2023-01-29T01:05:34;7.60;68.60
38436;DHT22;24220;48.168;14.024;2023-01-29T01:08:05;7.60;68.50
38436;DHT22;24220;48.168;14.024;2023-01-29T01:11:05;7.60;68.40
38436;DHT22;24220;48.168;14.024;2023-01-29T01:13:33;7.60;68.50
38436;DHT22;24220;48.168;14.024;2023-01-29T01:16:01;7.60;68.40
38436;DHT22;24220;48.168;14.024;2023-01-29T01:18:29;7.60;68.40
38436;DHT22;24220;48.168;14.024;2023-01-29T01:20:57;7.60;68.50
38436;DHT22;24220;48.168;14.024;2023-01-29T01:23:25;7.60;68.50
38436;DHT22;24220;48.168;14.024;2023-01-29T01:25:54;7.60;68.60
38436;DHT22;24220;48.168;14.024;2023-01-29T01:28:21;7.60;68.60
38436;DHT22;24220;48.168;14.024;2023-01-29T01:30:51;7.60;68.60
38436;DHT22;24220;48.168;14.024;2023-01-29T01:33:18;7.60;68.70
38436;DHT22;24220;48.168;14.024;2023-01-29T01:35:46;7.60;68.60
38436;DHT22;24220;48.168;14.024;2023-01-29T01:38:13;7.60;68.50
38436;DHT22;24220;48.168;14.024;2023-01-29T01:40:44;7.60;68.50
38436;DHT22;24220;48.168;14.024;2023-01-29T01:43:12;7.60;68.60
38436;DHT22;24220;48.168;14.024;2023-01-29T01:45:39;7.60;68.70
38436;DHT22;24220;48.168;14.024;2023-01-29T01:48:14;7.60;68.60
38436;DHT22;24220;48.168;14.024;2023-01-29T01:53:30;7.60;68.60
38436;DHT22;24220;48.168;14.024;2023-01-29T01:56:04;7.60;68.70
38436;DHT22;24220;48.168;14.024;2023-01-29T01:58:36;7.60;68.60
38436;DHT22;24220;48.168;14.024;2023-01-29T02:01:07;7.60;68.60
38436;DHT22;24220;48.168;14.024;2023-01-29T02:03:49;7.60;68.60
38436;DHT22;24220;48.168;14.024;2023-01-29T02:06:39;7.60;69.30
38436;DHT22;24220;48.168;14.024;2023-01-29T02:09:32;7.60;68.50
38436;DHT22;24220;48.168;14.024;2023-01-29T02:12:10;7.60;68.50
38436;DHT22;24220;48.168;14.024;2023-01-29T02:14:39;7.60;68.40
38436;DHT22;24220;48.168;14.024;2023-01-29T02:17:10;7.60;68.30
38436;DHT22;24220;48.168;14.024;2023-01-29T02:19:49;7.50;68.20
38436;DHT22;24220;48.168;14.024;2023-01-29T02:37:08;7.50;68.10
38436;DHT22;24220;48.168;14.024;2023-01-29T02:47:41;7.50;68.50
38436;DHT22;24220;48.168;14.024;2023-01-29T02:50:19;7.40;68.30
38436;DHT22;24220;48.168;14.024;2023-01-29T02:53:11;7.50;68.40
38436;DHT22;24220;48.168;14.024;2023-01-29T02:58:20;7.50;68.20
38436;DHT22;24220;48.168;14.024;2023-01-29T03:00:54;7.50;68.20
38436;DHT22;24220;48.168;14.024;2023-01-29T03:03:29;7.50;68.20
38436;DHT22;24220;48.168;14.024;2023-01-29T03:06:37;7.50;68.10
38436;DHT22;24220;48.168;14.024;2023-01-29T03:11:46;7.60;68.10
38436;DHT22;24220;48.168;14.024;2023-01-29T03:14:24;7.60;68.10
38436;DHT22;24220;48.168;14.024;2023-01-29T03:16:55;7.60;68.10
38436;DHT22;24220;48.168;14.024;2023-01-29T03:19:33;7.60;68.10
38436;DHT22;24220;48.168;14.024;2023-01-29T03:22:03;7.60;68.10
38436;DHT22;24220;48.168;14.024;2023-01-29T03:24:47;7.60;68.00
38436;DHT22;24220;48.168;14.024;2023-01-29T03:27:38;7.60;68.00
38436;DHT22;24220;48.168;14.024;2023-01-29T03:30:29;7.60;68.00
38436;DHT22;24220;48.168;14.024;2023-01-29T03:33:22;7.60;68.00
38436;DHT22;24220;48.168;14.024;2023-01-29T03:35:59;7.60;68.00
38436;DHT22;24220;48.168;14.024;2023-01-29T03:38:29;7.60;68.10
38436;DHT22;24220;48.168;14.024;2023-01-29T03:41:08;7.60;68.00
38436;DHT22;24220;48.168;14.024;2023-01-29T03:43:49;7.60;67.90
38436;DHT22;24220;48.168;14.024;2023-01-29T03:46:34;7.60;67.80
38436;DHT22;24220;48.168;14.024;2023-01-29T03:49:22;7.60;67.80
38436;DHT22;24220;48.168;14.024;2023-01-29T03:51:56;7.60;68.50
38436;DHT22;24220;48.168;14.024;2023-01-29T03:54:55;7.60;67.70
38436;DHT22;24220;48.168;14.024;2023-01-29T03:57:44;7.60;67.60
38436;DHT22;24220;48.168;14.024;2023-01-29T04:00:25;7.60;67.50
38436;DHT22;24220;48.168;14.024;2023-01-29T04:05:38;7.60;67.30
38436;DHT22;24220;48.168;14.024;2023-01-29T04:08:11;7.60;67.40
38436;DHT22;24220;48.168;14.024;2023-01-29T04:10:42;7.60;67.40
38436;DHT22;24220;48.168;14.024;2023-01-29T04:13:12;7.60;67.40
38436;DHT22;24220;48.168;14.024;2023-01-29T04:15:52;7.50;67.30
38436;DHT22;24220;48.168;14.024;2023-01-29T04:18:21;7.50;67.30
38436;DHT22;24220;48.168;14.024;2023-01-29T04:20:50;7.50;67.30
38436;DHT22;24220;48.168;14.024;2023-01-29T04:23:23;7.50;67.20
38436;DHT22;24220;48.168;14.024;2023-01-29T04:26:08;7.50;67.00
38436;DHT22;24220;48.168;14.024;2023-01-29T04:29:14;7.50;66.80
38436;DHT22;24220;48.168;14.024;2023-01-29T04:31:56;7.50;66.70
38436;DHT22;24220;48.168;14.024;2023-01-29T04:35:04;7.50;66.70
38436;DHT22;24220;48.168;14.024;2023-01-29T04:38:06;7.50;66.70
38436;DHT22;24220;48.168;14.024;2023-01-29T04:41:01;7.50;66.50
38436;DHT22;24220;48.168;14.024;2023-01-29T04:49:26;7.40;66.40
38436;DHT22;24220;48.168;14.024;2023-01-29T04:57:44;7.40;66.20
38436;DHT22;24220;48.168;14.024;2023-01-29T05:00:19;7.40;66.10
38436;DHT22;24220;48.168;14.024;2023-01-29T05:02:47;7.40;66.00
38436;DHT22;24220;48.168;14.024;2023-01-29T05:05:17;7.30;66.00
38436;DHT22;24220;48.168;14.024;2023-01-29T05:07:46;7.30;65.90
38436;DHT22;24220;48.168;14.024;2023-01-29T05:10:17;7.30;66.10
38436;DHT22;24220;48.168;14.024;2023-01-29T05:12:51;7.30;66.00
38436;DHT22;24220;48.168;14.024;2023-01-29T05:18:32;7.30;65.70
38436;DHT22;24220;48.168;14.024;2023-01-29T05:21:05;7.30;65.90
38436;DHT22;24220;48.168;14.024;2023-01-29T05:23:33;7.30;65.80
38436;DHT22;24220;48.168;14.024;2023-01-29T05:26:01;7.20;65.80
38436;DHT22;24220;48.168;14.024;2023-01-29T05:28:31;7.20;65.60
38436;DHT22;24220;48.168;14.024;2023-01-29T05:30:58;7.20;65.60
38436;DHT22;24220;48.168;14.024;2023-01-29T05:33:26;7.20;65.60
38436;DHT22;24220;48.168;14.024;2023-01-29T05:35:57;7.20;65.60
38436;DHT22;24220;48.168;14.024;2023-01-29T05:38:27;7.20;65.60
38436;DHT22;24220;48.168;14.024;2023-01-29T05:41:00;7.20;65.70
38436;DHT22;24220;48.168;14.024;2023-01-29T05:43:27;7.20;65.50
38436;DHT22;24220;48.168;14.024;2023-01-29T05:45:58;7.30;65.70
38436;DHT22;24220;48.168;14.024;2023-01-29T05:48:27;7.30;65.70
38436;DHT22;24220;48.168;14.024;2023-01-29T05:51:02;7.20;65.60
38436;DHT22;24220;48.168;14.024;2023-01-29T05:53:31;7.20;65.90
38436;DHT22;24220;48.168;14.024;2023-01-29T05:56:03;7.20;65.40
38436;DHT22;24220;48.168;14.024;2023-01-29T05:58:31;7.20;65.50
38436;DHT22;24220;48.168;14.024;2023-01-29T06:01:14;7.20;65.50
38436;DHT22;24220;48.168;14.024;2023-01-29T06:03:42;7.30;65.40
38436;DHT22;24220;48.168;14.024;2023-01-29T06:06:10;7.30;65.40
38436;DHT22;24220;48.168;14.024;2023-01-29T06:08:38;7.30;65.50
38436;DHT22;24220;48.168;14.024;2023-01-29T06:11:12;7.20;65.40
38436;DHT22;24220;48.168;14.024;2023-01-29T06:13:39;7.30;65.40
38436;DHT22;24220;48.168;14.024;2023-01-29T06:16:08;7.30;65.30
38436;DHT22;24220;48.168;14.024;2023-01-29T06:18:36;7.30;65.30
38436;DHT22;24220;48.168;14.024;2023-01-29T06:21:09;7.30;65.20
38436;DHT22;24220;48.168;14.024;2023-01-29T06:23:37;7.30;65.20
38436;DHT22;24220;48.168;14.024;2023-01-29T06:26:09;7.20;65.20
38436;DHT22;24220;48.168;14.024;2023-01-29T06:28:37;7.20;64.90
38436;DHT22;24220;48.168;14.024;2023-01-29T06:31:06;7.20;65.00
38436;DHT22;24220;48.168;14.024;2023-01-29T06:33:54;7.20;64.90
38436;DHT22;24220;48.168;14.024;2023-01-29T06:36:21;7.20;64.80
38436;DHT22;24220;48.168;14.024;2023-01-29T06:38:48;7.20;64.80
38436;DHT22;24220;48.168;14.024;2023-01-29T06:41:17;7.20;64.60
38436;DHT22;24220;48.168;14.024;2023-01-29T06:43:45;7.20;64.40
38436;DHT22;24220;48.168;14.024;2023-01-29T06:46:16;7.20;64.40
38436;DHT22;24220;48.168;14.024;2023-01-29T06:48:48;7.20;64.50
38436;DHT22;24220;48.168;14.024;2023-01-29T06:51:15;7.20;64.90
38436;DHT22;24220;48.168;14.024;2023-01-29T06:53:43;7.20;64.30
38436;DHT22;24220;48.168;14.024;2023-01-29T06:56:12;7.10;64.10
38436;DHT22;24220;48.168;14.024;2023-01-29T06:58:42;7.10;63.90
38436;DHT22;24220;48.168;14.024;2023-01-29T07:01:12;7.10;63.60
38436;DHT22;24220;48.168;14.024;2023-01-29T07:03:59;7.10;63.60
38436;DHT22;24220;48.168;14.024;2023-01-29T07:06:30;7.10;63.50
38436;DHT22;24220;48.168;14.024;2023-01-29T07:08:57;7.00;63.40
38436;DHT22;24220;48.168;14.024;2023-01-29T07:11:24;7.10;63.50
38436;DHT22;24220;48.168;14.024;2023-01-29T07:13:56;7.00;63.40
38436;DHT22;24220;48.168;14.024;2023-01-29T07:16:23;7.00;63.20
38436;DHT22;24220;48.168;14.024;2023-01-29T07:18:54;7.00;63.10
38436;DHT22;24220;48.168;14.024;2023-01-29T07:21:26;7.00;63.10
38436;DHT22;24220;48.168;14.024;2023-01-29T07:23:54;7.00;63.10
38436;DHT22;24220;48.168;14.024;2023-01-29T07:26:21;6.90;63.20
38436;DHT22;24220;48.168;14.024;2023-01-29T07:28:49;7.00;63.80
38436;DHT22;24220;48.168;14.024;2023-01-29T07:31:16;6.90;63.20
38436;DHT22;24220;48.168;14.024;2023-01-29T07:33:44;7.00;63.10
38436;DHT22;24220;48.168;14.024;2023-01-29T07:36:12;7.00;63.10
38436;DHT22;24220;48.168;14.024;2023-01-29T07:38:42;6.90;62.90
38436;DHT22;24220;48.168;14.024;2023-01-29T07:41:13;6.90;62.90
38436;DHT22;24220;48.168;14.024;2023-01-29T07:43:40;6.90;62.80
38436;DHT22;24220;48.168;14.024;2023-01-29T07:46:08;6.90;62.80
38436;DHT22;24220;48.168;14.024;2023-01-29T07:48:35;6.90;62.90
38436;DHT22;24220;48.168;14.024;2023-01-29T07:51:06;6.90;62.90
38436;DHT22;24220;48.168;14.024;2023-01-29T07:53:33;6.90;63.50
38436;DHT22;24220;48.168;14.024;2023-01-29T07:56:02;6.90;63.00
38436;DHT22;24220;48.168;14.024;2023-01-29T07:58:29;6.90;63.00
38436;DHT22;24220;48.168;14.024;2023-01-29T08:00:57;6.90;63.10
38436;DHT22;24220;48.168;14.024;2023-01-29T08:03:24;6.90;63.00
38436;DHT22;24220;48.168;14.024;2023-01-29T08:05:51;6.90;63.00
38436;DHT22;24220;48.168;14.024;2023-01-29T08:08:19;7.00;62.90
38436;DHT22;24220;48.168;14.024;2023-01-29T08:10:46;6.90;62.80
38436;DHT22;24220;48.168;14.024;2023-01-29T08:13:14;7.00;62.80
38436;DHT22;24220;48.168;14.024;2023-01-29T08:15:42;7.00;62.90
38436;DHT22;24220;48.168;14.024;2023-01-29T08:18:12;7.00;62.90
38436;DHT22;24220;48.168;14.024;2023-01-29T08:20:39;7.00;62.80
38436;DHT22;24220;48.168;14.024;2023-01-29T08:23:11;7.00;62.80
38436;DHT22;24220;48.168;14.024;2023-01-29T08:25:39;7.00;62.50
38436;DHT22;24220;48.168;14.024;2023-01-29T08:28:10;7.00;62.70
38436;DHT22;24220;48.168;14.024;2023-01-29T08:30:38;7.10;62.70
38436;DHT22;24220;48.168;14.024;2023-01-29T08:33:06;7.00;62.60
38436;DHT22;24220;48.168;14.024;2023-01-29T08:35:35;7.10;62.50
38436;DHT22;24220;48.168;14.024;2023-01-29T08:38:04;7.10;62.20
38436;DHT22;24220;48.168;14.024;2023-01-29T08:40:33;7.10;61.70
38436;DHT22;24220;48.168;14.024;2023-01-29T08:43:04;7.10;61.70
38436;DHT22;24220;48.168;14.024;2023-01-29T08:45:37;7.10;61.80
38436;DHT22;24220;48.168;14.024;2023-01-29T08:48:08;7.10;61.70
38436;DHT22;24220;48.168;14.024;2023-01-29T08:50:36;7.10;61.60
38436;DHT22;24220;48.168;14.024;2023-01-29T08:53:06;7.10;61.90
38436;DHT22;24220;48.168;14.024;2023-01-29T08:55:37;7.10;61.40
38436;DHT22;24220;48.168;14.024;2023-01-29T08:58:07;7.10;61.20
38436;DHT22;24220;48.168;14.024;2023-01-29T09:00:35;7.10;61.20
38436;DHT22;24220;48.168;14.024;2023-01-29T09:03:02;7.10;61.00
38436;DHT22;24220;48.168;14.024;2023-01-29T09:05:33;7.10;61.00
38436;DHT22;24220;48.168;14.024;2023-01-29T09:08:00;7.10;61.00
38436;DHT22;24220;48.168;14.024;2023-01-29T09:10:28;7.10;61.00
38436;DHT22;24220;48.168;14.024;2023-01-29T09:12:55;7.00;61.00
38436;DHT22;24220;48.168;14.024;2023-01-29T09:15:23;7.10;61.00
38436;DHT22;24220;48.168;14.024;2023-01-29T09:17:51;7.00;60.90
38436;DHT22;24220;48.168;14.024;2023-01-29T09:20:19;7.10;61.00
38436;DHT22;24220;48.168;14.024;2023-01-29T09:22:47;7.10;60.90
38436;DHT22;24220;48.168;14.024;2023-01-29T09:25:15;7.00;60.80
38436;DHT22;24220;48.168;14.024;2023-01-29T09:27:43;7.10;60.80
38436;DHT22;24220;48.168;14.024;2023-01-29T09:30:13;7.10;60.80
38436;DHT22;24220;48.168;14.024;2023-01-29T09:32:40;7.10;60.70
38436;DHT22;24220;48.168;14.024;2023-01-29T09:35:23;7.10;60.80
38436;DHT22;24220;48.168;14.024;2023-01-29T09:37:52;7.10;61.00
38436;DHT22;24220;48.168;14.024;2023-01-29T09:40:31;7.10;61.00
38436;DHT22;24220;48.168;14.024;2023-01-29T09:43:05;7.10;60.70
38436;DHT22;24220;48.168;14.024;2023-01-29T09:45:37;7.10;60.80
38436;DHT22;24220;48.168;14.024;2023-01-29T09:48:10;7.10;61.00
38436;DHT22;24220;48.168;14.024;2023-01-29T09:50:43;7.10;60.60
38436;DHT22;24220;48.168;14.024;2023-01-29T09:56:03;7.20;60.80
38436;DHT22;24220;48.168;14.024;2023-01-29T09:58:39;7.20;60.70
38436;DHT22;24220;48.168;14.024;2023-01-29T10:23:54;7.30;60.20
38436;DHT22;24220;48.168;14.024;2023-01-29T10:26:28;7.40;60.10
38436;DHT22;24220;48.168;14.024;2023-01-29T10:28:56;7.40;60.10
38436;DHT22;24220;48.168;14.024;2023-01-29T10:31:32;7.40;60.10
38436;DHT22;24220;48.168;14.024;2023-01-29T10:34:35;7.40;60.20
38436;DHT22;24220;48.168;14.024;2023-01-29T10:37:20;7.40;60.10
38436;DHT22;24220;48.168;14.024;2023-01-29T10:39:50;7.40;60.00
38436;DHT22;24220;48.168;14.024;2023-01-29T10:50:11;7.50;60.50
38436;DHT22;24220;48.168;14.024;2023-01-29T10:52:55;7.50;60.30
38436;DHT22;24220;48.168;14.024;2023-01-29T10:58:52;7.60;59.60
38436;DHT22;24220;48.168;14.024;2023-01-29T11:01:20;7.60;59.70
38436;DHT22;24220;48.168;14.024;2023-01-29T11:04:04;7.70;59.90
38436;DHT22;24220;48.168;14.024;2023-01-29T11:06:34;7.70;59.30
38436;DHT22;24220;48.168;14.024;2023-01-29T11:09:17;7.70;59.30
38436;DHT22;24220;48.168;14.024;2023-01-29T11:14:32;7.70;59.20
38436;DHT22;24220;48.168;14.024;2023-01-29T11:17:04;7.70;59.30
38436;DHT22;24220;48.168;14.024;2023-01-29T11:19:42;7.80;59.50
38436;DHT22;24220;48.168;14.024;2023-01-29T11:24:40;7.80;59.60
38436;DHT22;24220;48.168;14.024;2023-01-29T11:27:25;7.90;59.60
38436;DHT22;24220;48.168;14.024;2023-01-29T11:29:56;7.90;59.50
38436;DHT22;24220;48.168;14.024;2023-01-29T11:32:26;7.90;59.50
38436;DHT22;24220;48.168;14.024;2023-01-29T11:37:44;7.90;59.70
38436;DHT22;24220;48.168;14.024;2023-01-29T11:42:45;8.00;59.50
38436;DHT22;24220;48.168;14.024;2023-01-29T11:45:33;8.00;59.10
38436;DHT22;24220;48.168;14.024;2023-01-29T11:48:10;8.00;59.20
38436;DHT22;24220;48.168;14.024;2023-01-29T11:50:39;8.00;59.70
38436;DHT22;24220;48.168;14.024;2023-01-29T11:53:22;8.00;59.70
38436;DHT22;24220;48.168;14.024;2023-01-29T11:55:51;8.00;59.40
38436;DHT22;24220;48.168;14.024;2023-01-29T11:58:29;8.00;59.10
38436;DHT22;24220;48.168;14.024;2023-01-29T12:00:59;8.00;59.10
38436;DHT22;24220;48.168;14.024;2023-01-29T12:03:36;8.10;58.90
38436;DHT22;24220;48.168;14.024;2023-01-29T12:08:43;8.10;58.70
38436;DHT22;24220;48.168;14.024;2023-01-29T12:11:27;8.10;58.90
38436;DHT22;24220;48.168;14.024;2023-01-29T12:13:57;8.00;59.00
38436;DHT22;24220;48.168;14.024;2023-01-29T12:19:30;8.10;58.90
38436;DHT22;24220;48.168;14.024;2023-01-29T12:24:56;8.10;59.00
38436;DHT22;24220;48.168;14.024;2023-01-29T12:27:31;8.10;58.90
38436;DHT22;24220;48.168;14.024;2023-01-29T12:33:02;8.10;58.70
38436;DHT22;24220;48.168;14.024;2023-01-29T12:35:47;8.10;59.30
38436;DHT22;24220;48.168;14.024;2023-01-29T12:38:21;8.10;58.70
38436;DHT22;24220;48.168;14.024;2023-01-29T12:40:57;8.10;58.80
38436;DHT22;24220;48.168;14.024;2023-01-29T12:44:06;8.10;58.40
38436;DHT22;24220;48.168;14.024;2023-01-29T12:46:31;8.10;58.10
38436;DHT22;24220;48.168;14.024;2023-01-29T12:49:02;8.10;58.10
38436;DHT22;24220;48.168;14.024;2023-01-29T12:51:36;8.10;58.40
38436;DHT22;24220;48.168;14.024;2023-01-29T12:54:11;8.10;58.40
38436;DHT22;24220;48.168;14.024;2023-01-29T12:56:46;8.10;58.20
38436;DHT22;24220;48.168;14.024;2023-01-29T12:59:23;8.10;58.30
38436;DHT22;24220;48.168;14.024;2023-01-29T13:02:24;8.10;58.50
38436;DHT22;24220;48.168;14.024;2023-01-29T13:04:59;8.10;58.20
38436;DHT22;24220;48.168;14.024;2023-01-29T13:07:37;8.10;58.30
38436;DHT22;24220;48.168;14.024;2023-01-29T13:10:12;8.10;58.40
38436;DHT22;24220;48.168;14.024;2023-01-29T13:13:11;8.10;58.20
38436;DHT22;24220;48.168;14.024;2023-01-29T13:15:41;8.10;58.00
38436;DHT22;24220;48.168;14.024;2023-01-29T13:18:36;8.10;57.90
38436;DHT22;24220;48.168;14.024;2023-01-29T13:21:14;8.10;57.50
38436;DHT22;24220;48.168;14.024;2023-01-29T13:24:01;8.10;57.90
38436;DHT22;24220;48.168;14.024;2023-01-29T13:26:38;8.10;57.70
38436;DHT22;24220;48.168;14.024;2023-01-29T13:29:23;8.10;58.00
38436;DHT22;24220;48.168;14.024;2023-01-29T13:31:55;8.10;57.90
38436;DHT22;24220;48.168;14.024;2023-01-29T13:34:25;8.10;57.90
38436;DHT22;24220;48.168;14.024;2023-01-29T13:36:57;8.10;57.70
38436;DHT22;24220;48.168;14.024;2023-01-29T13:41:59;8.10;57.50
38436;DHT22;24220;48.168;14.024;2023-01-29T13:44:32;8.00;57.50
38436;DHT22;24220;48.168;14.024;2023-01-29T13:47:03;8.00;57.40
38436;DHT22;24220;48.168;14.024;2023-01-29T13:49:36;8.10;57.50
38436;DHT22;24220;48.168;14.024;2023-01-29T13:55:03;8.00;57.40
38436;DHT22;24220;48.168;14.024;2023-01-29T14:08:02;8.00;57.20
38436;DHT22;24220;48.168;14.024;2023-01-29T14:10:31;8.00;57.30
38436;DHT22;24220;48.168;14.024;2023-01-29T14:15:34;8.00;57.30
38436;DHT22;24220;48.168;14.024;2023-01-29T14:36:47;8.00;58.70
38436;DHT22;24220;48.168;14.024;2023-01-29T14:39:24;8.00;58.90
38436;DHT22;24220;48.168;14.024;2023-01-29T14:41:54;8.00;58.90
38436;DHT22;24220;48.168;14.024;2023-01-29T14:47:50;8.00;59.20
38436;DHT22;24220;48.168;14.024;2023-01-29T14:52:50;8.00;59.20
38436;DHT22;24220;48.168;14.024;2023-01-29T14:55:30;8.00;59.20
38436;DHT22;24220;48.168;14.024;2023-01-29T14:58:04;8.00;59.10
38436;DHT22;24220;48.168;14.024;2023-01-29T15:00:36;8.00;59.00
38436;DHT22;24220;48.168;14.024;2023-01-29T15:03:14;7.90;59.10
38436;DHT22;24220;48.168;14.024;2023-01-29T15:05:45;7.90;58.90
38436;DHT22;24220;48.168;14.024;2023-01-29T15:08:22;8.00;59.10
38436;DHT22;24220;48.168;14.024;2023-01-29T15:11:03;7.90;59.00
38436;DHT22;24220;48.168;14.024;2023-01-29T15:14:12;7.90;59.10
38436;DHT22;24220;48.168;14.024;2023-01-29T15:16:55;7.90;59.20
38436;DHT22;24220;48.168;14.024;2023-01-29T15:19:28;7.90;59.20
38436;DHT22;24220;48.168;14.024;2023-01-29T15:22:15;7.90;59.40
38436;DHT22;24220;48.168;14.024;2023-01-29T15:25:00;7.90;59.40
38436;DHT22;24220;48.168;14.024;2023-01-29T15:27:27;7.90;59.50
38436;DHT22;24220;48.168;14.024;2023-01-29T15:30:01;7.80;59.50
38436;DHT22;24220;48.168;14.024;2023-01-29T15:32:36;7.80;59.40
38436;DHT22;24220;48.168;14.024;2023-01-29T15:35:16;7.90;59.40
38436;DHT22;24220;48.168;14.024;2023-01-29T15:40:31;7.80;59.40
38436;DHT22;24220;48.168;14.024;2023-01-29T15:43:01;7.80;59.40
38436;DHT22;24220;48.168;14.024;2023-01-29T15:45:32;7.80;59.30
38436;DHT22;24220;48.168;14.024;2023-01-29T15:48:05;7.80;59.30
38436;DHT22;24220;48.168;14.024;2023-01-29T15:50:36;7.80;59.30
38436;DHT22;24220;48.168;14.024;2023-01-29T15:53:07;7.80;59.40
38436;DHT22;24220;48.168;14.024;2023-01-29T15:55:36;7.80;59.30
38436;DHT22;24220;48.168;14.024;2023-01-29T15:58:03;7.70;59.30
38436;DHT22;24220;48.168;14.024;2023-01-29T16:00:31;7.80;59.40
38436;DHT22;24220;48.168;14.024;2023-01-29T16:02:58;7.70;59.20
38436;DHT22;24220;48.168;14.024;2023-01-29T16:05:29;7.70;59.20
38436;DHT22;24220;48.168;14.024;2023-01-29T16:08:00;7.70;59.20
38436;DHT22;24220;48.168;14.024;2023-01-29T16:10:31;7.70;59.20
38436;DHT22;24220;48.168;14.024;2023-01-29T16:12:59;7.70;59.10
38436;DHT22;24220;48.168;14.024;2023-01-29T16:15:38;7.70;59.10
38436;DHT22;24220;48.168;14.024;2023-01-29T16:21:13;7.70;59.00
38436;DHT22;24220;48.168;14.024;2023-01-29T16:23:50;7.70;59.00
38436;DHT22;24220;48.168;14.024;2023-01-29T16:26:25;7.70;59.00
38436;DHT22;24220;48.168;14.024;2023-01-29T16:28:56;7.70;58.90
38436;DHT22;24220;48.168;14.024;2023-01-29T16:31:31;7.70;58.90
38436;DHT22;24220;48.168;14.024;2023-01-29T16:34:06;7.70;59.50
38436;DHT22;24220;48.168;14.024;2023-01-29T16:36:37;7.70;59.00
38436;DHT22;24220;48.168;14.024;2023-01-29T16:39:17;7.60;58.80
38436;DHT22;24220;48.168;14.024;2023-01-29T16:44:43;7.60;58.80
38436;DHT22;24220;48.168;14.024;2023-01-29T16:47:14;7.60;58.80
38436;DHT22;24220;48.168;14.024;2023-01-29T16:49:53;7.60;58.70
38436;DHT22;24220;48.168;14.024;2023-01-29T16:52:27;7.60;58.50
38436;DHT22;24220;48.168;14.024;2023-01-29T16:55:21;7.50;58.40
38436;DHT22;24220;48.168;14.024;2023-01-29T16:57:53;7.50;58.50
38436;DHT22;24220;48.168;14.024;2023-01-29T17:00:28;7.50;58.50
38436;DHT22;24220;48.168;14.024;2023-01-29T17:03:02;7.50;58.40
38436;DHT22;24220;48.168;14.024;2023-01-29T17:05:33;7.50;58.40
38436;DHT22;24220;48.168;14.024;2023-01-29T17:08:02;7.50;58.60
38436;DHT22;24220;48.168;14.024;2023-01-29T17:10:31;7.40;58.60
38436;DHT22;24220;48.168;14.024;2023-01-29T17:13:05;7.40;58.60
38436;DHT22;24220;48.168;14.024;2023-01-29T17:15:45;7.40;58.50
38436;DHT22;24220;48.168;14.024;2023-01-29T17:18:20;7.40;58.40
38436;DHT22;24220;48.168;14.024;2023-01-29T17:20:49;7.40;58.60
38436;DHT22;24220;48.168;14.024;2023-01-29T17:23:16;7.40;58.80
38436;DHT22;24220;48.168;14.024;2023-01-29T17:25:44;7.40;58.80
38436;DHT22;24220;48.168;14.024;2023-01-29T17:28:13;7.40;58.90
38436;DHT22;24220;48.168;14.024;2023-01-29T17:30:41;7.30;58.80
38436;DHT22;24220;48.168;14.024;2023-01-29T17:33:18;7.30;58.80
38436;DHT22;24220;48.168;14.024;2023-01-29T17:35:49;7.30;58.70
38436;DHT22;24220;48.168;14.024;2023-01-29T17:38:18;7.30;58.80
38436;DHT22;24220;48.168;14.024;2023-01-29T17:41:05;7.30;58.90
38436;DHT22;24220;48.168;14.024;2023-01-29T17:43:35;7.30;58.70
38436;DHT22;24220;48.168;14.024;2023-01-29T17:46:02;7.30;58.80
38436;DHT22;24220;48.168;14.024;2023-01-29T17:48:30;7.30;58.90
38436;DHT22;24220;48.168;14.024;2023-01-29T17:51:01;7.20;58.70
38436;DHT22;24220;48.168;14.024;2023-01-29T17:53:28;7.20;58.70
38436;DHT22;24220;48.168;14.024;2023-01-29T17:56:23;7.20;58.70
38436;DHT22;24220;48.168;14.024;2023-01-29T17:58:53;7.20;58.60
38436;DHT22;24220;48.168;14.024;2023-01-29T18:01:23;7.20;58.50
38436;DHT22;24220;48.168;14.024;2023-01-29T18:03:50;7.20;58.70
38436;DHT22;24220;48.168;14.024;2023-01-29T18:06:26;7.20;58.70
38436;DHT22;24220;48.168;14.024;2023-01-29T18:08:54;7.20;58.80
38436;DHT22;24220;48.168;14.024;2023-01-29T18:11:24;7.20;59.00
38436;DHT22;24220;48.168;14.024;2023-01-29T18:13:52;7.20;58.90
38436;DHT22;24220;48.168;14.024;2023-01-29T18:16:20;7.20;59.00
38436;DHT22;24220;48.168;14.024;2023-01-29T18:18:49;7.20;58.90
38436;DHT22;24220;48.168;14.024;2023-01-29T18:21:17;7.20;58.80
38436;DHT22;24220;48.168;14.024;2023-01-29T18:23:44;7.20;58.80
38436;DHT22;24220;48.168;14.024;2023-01-29T18:26:14;7.20;58.90
38436;DHT22;24220;48.168;14.024;2023-01-29T18:28:42;7.20;58.90
38436;DHT22;24220;48.168;14.024;2023-01-29T18:31:12;7.10;58.80
38436;DHT22;24220;48.168;14.024;2023-01-29T18:33:40;7.10;58.70
38436;DHT22;24220;48.168;14.024;2023-01-29T18:36:08;7.10;59.50
38436;DHT22;24220;48.168;14.024;2023-01-29T18:38:37;7.10;58.80
38436;DHT22;24220;48.168;14.024;2023-01-29T18:41:06;7.20;58.90
38436;DHT22;24220;48.168;14.024;2023-01-29T18:43:44;7.20;58.80
38436;DHT22;24220;48.168;14.024;2023-01-29T18:46:11;7.10;58.60